• Join FlightAware (Why Join?)
  • Login
  • US Flag 
05:10AM EDT


 

Airport Tracker/Info


-or-


 

Live Flight TrackerFlight Track Log ✈ SWA631 ✈ 16-Jun-2013 ✈ KDEN - KABQ

Flight Track Log - Related Links

Times and Time Zones

All times are in EDT time to prevent confusion due to time zone crossing. See the SWA631 flight status page for this flight to view local times or setup timezone preferences in your user account.

Time Position Orientation Groundspeed Altitude Reporting Facility
EDT Latitude Longitude Course Direction KTS MPH feet Rate Location/Type
10:39AM 39.8333 -104.6500 169° South 170 196 6,400  Level Denver TRACON
10:40AM 39.7667 -104.6333 169° South 229 264 7,800 1,440 Climbing Denver TRACON
10:41AM 39.7133 -104.6442 189° South 249 287 9,000 1,980 Climbing Denver Center
10:42AM 39.6206 -104.6564 186° South 312 359 11,400 2,460 Climbing Denver Center
10:43AM 39.5353 -104.6686 186° South 357 411 14,200 3,180 Climbing Denver Center
10:44AM 39.4086 -104.6853 186° South 373 429 18,000 3,060 Climbing Denver Center
10:45AM 39.3003 -104.7019 187° South 388 447 20,600 2,580 Climbing Denver Center
10:46AM 39.1756 -104.7186 186° South 418 481 23,400 2,460 Climbing Denver Center
10:47AM 39.0728 -104.7333 186° South 419 482 25,700 2,460 Climbing Denver Center
10:48AM 38.9431 -104.7994 202° Southwest 415 478 28,500 2,340 Climbing Denver Center
10:49AM 38.8381 -104.8636 205° Southwest 417 480 30,600 2,100 Climbing Denver Center
10:50AM 38.7350 -104.9286 206° Southwest 415 478 33,300 1,920 Climbing Denver Center
10:51AM 38.6192 -105.0089 208° Southwest 398 458 35,000 780 Climbing Denver Center
10:52AM 38.5231 -105.0753 208° Southwest 394 453 35,000  Level Denver Center
10:53AM 38.4256 -105.1431 209° Southwest 397 457 35,000  Level Denver Center
10:54AM 38.3136 -105.2203 208° Southwest 398 458 35,000  Level Denver Center
10:56AM 38.2197 -105.2833 208° Southwest 399 459 35,000  Level Denver Center
10:57AM 38.0950 -105.3692 208° Southwest 401 461 35,000  Level Denver Center
10:58AM 37.9853 -105.4436 208° Southwest 403 464 35,000  Level Denver Center
10:59AM 37.9078 -105.4961 208° Southwest 399 459 35,000  Level Denver Center
11:00AM 37.7833 -105.5806 208° Southwest 398 458 35,000  Level Denver Center
11:01AM 37.6864 -105.6383 205° Southwest 401 461 35,000  Level Denver Center
11:02AM 37.5681 -105.6944 201° Southwest 407 468 35,000  Level Denver Center
11:03AM 37.4597 -105.7447 200° South 407 468 35,000  Level Denver Center
11:04AM 37.3575 -105.7919 200° South 406 467 35,000  Level Denver Center
11:05AM 37.2397 -105.8489 201° Southwest 406 467 35,000  Level Denver Center
11:06AM 37.1372 -105.8961 200° South 408 470 35,000 -540 Level Denver Center
11:07AM 37.0147 -105.9536 201° Southwest 418 481 33,900 -1,020 Descending Denver Center
11:08AM 36.9169 -105.9975 200° South 421 484 33,000 -960 Descending Denver Center
11:09AM 36.7953 -106.0547 201° Southwest 419 482 32,000 -540 Descending Denver Center
11:10AM 36.6875 -106.1036 200° South 413 475 32,000  Level Denver Center
11:11AM 36.5617 -106.1622 201° Southwest 420 483 32,000  Level Albuquerque Center
11:12AM 36.4586 -106.2081 200° South 413 475 32,000  Level Albuquerque Center
11:13AM 36.3553 -106.2553 200° South 412 474 32,000 -600 Level Albuquerque Center
11:14AM 36.2339 -106.3069 199° South 412 474 30,800 -1,620 Descending Albuquerque Center
11:15AM 36.1314 -106.3550 201° Southwest 400 460 28,700 -2,100 Descending Albuquerque Center
11:16AM 36.0294 -106.3981 199° South 390 449 26,500 -2,160 Descending Albuquerque Center
11:17AM 35.9308 -106.4397 199° South 379 436 24,300 -2,280 Descending Albuquerque Center
11:18AM 35.8178 -106.4867 199° South 374 430 21,800 -2,220 Descending Albuquerque Center
11:19AM 35.7261 -106.5244 198° South 367 422 19,800 -2,100 Descending Albuquerque Center
11:20AM 35.6494 -106.5547 198° South 358 412 18,100 -1,920 Descending Albuquerque Center
11:20AM 35.6419 -106.5578 198° South 360 414 17,900 -1,980 Descending Albuquerque Center
11:21AM 35.5325 -106.6089 201° Southwest 352 405 15,500 -1,800 Descending Albuquerque Center
11:23AM 35.4336 -106.6628 204° Southwest 323 372 13,900 -1,500 Descending Albuquerque Center
11:24AM 35.3475 -106.7086 203° Southwest 313 360 12,200 -1,680 Descending Albuquerque Center
11:24AM 35.2886 -106.7414 204° Southwest 314 361 10,800 -1,320 Descending Albuquerque Center
11:25AM 35.2131 -106.7875 207° Southwest 308 354 9,800 -1,260 Descending Albuquerque Center
11:27AM 35.1378 -106.8122 195° South 293 337 8,300 -900 Descending Albuquerque Center
11:28AM 35.0639 -106.8022 174° South 271 312 8,000 -540 Descending Albuquerque Center
11:29AM 35.0450 -106.7392 110° East 229 264 7,200 -960 Descending Albuquerque Center
11:30AM 35.0431 -106.6625 92° East 179 206 6,100 -960 Descending Albuquerque Center
11:31AM 35.0442 -106.6114 88° East 177 204 5,300 -840 Descending Albuquerque Center
11:33AM 35.0402 -106.6092 90° East  Level Estimated